Time;durP1;ratioP1;P1;durP2;ratioP2;P2;SDS_P1;SDS_P2;PMS_P1;PMS_P2;Temp;Humidity;BMP_temperature;BMP_pressure;BME280_temperature;BME280_humidity;BME280_pressure;Samples;Min_cycle;Max_cycle;Signal;HPM_P1;HPM_P2
2022/09/06 00:02:14;;;;;;;29.05;25.95;;;19.20;99.90;;;;;;5073095;28;20380;-54
2022/09/06 00:04:40;;;;;;;29.02;26.20;;;19.20;99.90;;;;;;5077698;28;20488;-57
2022/09/06 00:07:06;;;;;;;30.23;27.10;;;19.20;99.90;;;;;;5070121;28;20029;-56
2022/09/06 00:09:31;;;;;;;30.17;27.08;;;19.20;99.90;;;;;;5074156;28;20106;-56
2022/09/06 00:11:57;;;;;;;29.33;26.48;;;19.10;99.90;;;;;;5063303;28;20040;-58
2022/09/06 00:14:23;;;;;;;29.48;26.48;;;19.00;99.90;;;;;;5063099;28;20036;-59
2022/09/06 00:16:49;;;;;;;29.67;26.65;;;19.00;99.90;;;;;;5055983;28;20033;-55
2022/09/06 00:19:15;;;;;;;29.50;26.60;;;18.90;99.90;;;;;;5077059;28;20492;-54
2022/09/06 00:21:40;;;;;;;31.67;26.40;;;18.90;99.90;;;;;;5060988;28;20120;-57
2022/09/06 00:24:07;;;;;;;30.83;28.02;;;18.90;99.90;;;;;;5063149;28;20029;-55
2022/09/06 00:26:32;;;;;;;30.98;27.95;;;18.90;99.90;;;;;;5061241;28;20045;-55
2022/09/06 00:28:58;;;;;;;30.15;27.17;;;18.90;99.90;;;;;;5062970;28;20029;-53
2022/09/06 00:31:26;;;;;;;29.35;26.52;;;19.00;99.90;;;;;;5069163;28;20460;-57
2022/09/06 00:33:52;;;;;;;30.67;27.67;;;19.00;99.90;;;;;;5060779;28;20067;-55
2022/09/06 00:36:19;;;;;;;30.90;27.88;;;19.00;99.90;;;;;;5072046;28;20020;-52
2022/09/06 00:38:45;;;;;;;32.70;29.20;;;19.00;99.90;;;;;;5059515;28;20029;-55
2022/09/06 00:41:13;;;;;;;30.60;27.65;;;18.90;99.90;;;;;;5064595;28;20518;-57
2022/09/06 00:43:39;;;;;;;30.85;27.95;;;18.90;99.90;;;;;;5062576;28;20089;-55
2022/09/06 00:46:07;;;;;;;30.27;27.17;;;18.80;99.90;;;;;;5058285;28;20029;-53
2022/09/06 00:48:36;;;;;;;30.85;26.80;;;18.80;99.90;;;;;;5071956;28;20136;-54
2022/09/06 00:51:06;;;;;;;32.17;28.70;;;18.80;99.90;;;;;;5063860;28;20029;-54
2022/09/06 00:53:32;;;;;;;30.85;27.02;;;18.90;99.90;;;;;;5058318;28;20048;-57
2022/09/06 00:55:58;;;;;;;30.65;27.33;;;18.90;99.90;;;;;;5063024;28;20029;-54
2022/09/06 00:58:27;;;;;;;31.42;28.23;;;18.90;99.90;;;;;;5062771;28;20037;-54
2022/09/06 01:00:53;;;;;;;30.52;27.02;;;18.90;99.90;;;;;;5067266;28;20039;-54
2022/09/06 01:03:21;;;;;;;32.40;29.17;;;18.90;99.90;;;;;;5069221;28;20036;-56
2022/09/06 01:06:06;;;;;;;31.85;28.45;;;19.00;99.90;;;;;;5059599;28;20052;-53
2022/09/06 01:08:49;;;;;;;30.52;27.50;;;18.90;99.90;;;;;;5056322;28;20032;-55
2022/09/06 01:11:24;;;;;;;31.23;27.92;;;18.90;99.90;;;;;;5060215;28;20523;-52
2022/09/06 01:14:10;;;;;;;31.52;28.38;;;19.00;99.90;;;;;;5065751;28;20083;-54
2022/09/06 01:16:51;;;;;;;31.20;27.90;;;19.00;99.90;;;;;;5068339;28;20041;-55
2022/09/06 01:19:17;;;;;;;31.23;27.95;;;19.00;99.90;;;;;;5066596;28;20029;-53
2022/09/06 01:21:53;;;;;;;31.70;28.40;;;19.00;99.90;;;;;;5061886;28;20037;-53
2022/09/06 01:24:37;;;;;;;31.10;27.98;;;19.00;99.90;;;;;;5066313;28;20028;-53
2022/09/06 01:27:26;;;;;;;31.27;27.63;;;19.00;99.90;;;;;;5066207;28;20051;-52
2022/09/06 01:30:01;;;;;;;30.67;27.77;;;18.90;99.90;;;;;;5061722;28;20036;-52
2022/09/06 01:32:45;;;;;;;32.33;26.95;;;18.90;99.90;;;;;;5084756;28;20044;-56
2022/09/06 01:35:18;;;;;;;29.00;25.90;;;18.90;99.90;;;;;;5062141;28;20116;-54
2022/09/06 01:37:44;;;;;;;30.55;27.05;;;18.90;99.90;;;;;;5067912;28;20032;-56
2022/09/06 01:40:10;;;;;;;30.52;26.58;;;18.90;99.90;;;;;;5063596;28;20041;-54
2022/09/06 01:42:39;;;;;;;30.48;26.17;;;18.60;99.90;;;;;;5066641;28;20109;-54
2022/09/06 01:45:14;;;;;;;31.25;27.42;;;18.30;99.90;;;;;;5084585;28;20054;-55
2022/09/06 01:47:49;;;;;;;36.72;28.55;;;18.20;99.90;;;;;;5069857;28;20036;-55
2022/09/06 01:50:40;;;;;;;28.10;25.05;;;18.10;99.90;;;;;;5060302;28;20437;-55
2022/09/06 01:53:23;;;;;;;28.27;25.00;;;18.20;99.90;;;;;;5058657;28;20032;-56
2022/09/06 01:56:11;;;;;;;29.65;26.65;;;18.40;99.90;;;;;;5059507;28;20029;-53
2022/09/06 01:58:50;;;;;;;28.15;25.25;;;18.50;99.90;;;;;;5063795;28;20029;-55
2022/09/06 02:01:22;;;;;;;34.75;26.17;;;18.50;99.90;;;;;;5063609;28;20441;-55
2022/09/06 02:04:11;;;;;;;29.40;24.45;;;18.60;99.90;;;;;;5063637;28;20033;-53
2022/09/06 02:06:53;;;;;;;28.45;25.70;;;18.60;99.90;;;;;;5073782;28;20028;-55
2022/09/06 02:09:23;;;;;;;30.30;27.10;;;18.60;99.90;;;;;;5065477;28;20438;-53
2022/09/06 02:11:57;;;;;;;29.00;25.90;;;18.60;99.90;;;;;;5079734;28;20438;-54
2022/09/06 02:14:55;;;;;;;28.33;25.42;;;18.70;99.90;;;;;;5062192;28;20044;-54
2022/09/06 02:17:30;;;;;;;27.65;24.75;;;18.70;99.90;;;;;;5043370;28;20041;-52
2022/09/06 02:20:19;;;;;;;27.33;24.52;;;18.60;99.90;;;;;;5065444;28;20393;-56
2022/09/06 02:22:48;;;;;;;30.98;25.95;;;18.60;99.90;;;;;;5061203;28;20098;-57
2022/09/06 02:25:28;;;;;;;29.98;26.83;;;18.60;99.90;;;;;;5065763;28;20032;-52
2022/09/06 02:27:54;;;;;;;29.95;26.58;;;18.60;99.90;;;;;;5060742;28;20021;-54
2022/09/06 02:30:20;;;;;;;29.85;26.75;;;18.60;99.90;;;;;;5064365;28;20024;-56
2022/09/06 02:33:00;;;;;;;30.67;27.30;;;18.70;99.90;;;;;;5068327;28;20492;-57
2022/09/06 02:35:26;;;;;;;28.73;25.88;;;18.60;99.90;;;;;;5070241;28;20027;-56
2022/09/06 02:37:52;;;;;;;27.27;24.60;;;18.60;99.90;;;;;;5065783;28;20388;-54
2022/09/06 02:40:18;;;;;;;29.48;26.42;;;18.60;99.90;;;;;;5066767;28;20032;-57
2022/09/06 02:42:44;;;;;;;29.27;26.15;;;18.60;99.90;;;;;;5065044;28;20046;-54
2022/09/06 02:45:10;;;;;;;26.95;24.27;;;18.70;99.90;;;;;;5059778;28;20103;-55
2022/09/06 02:47:36;;;;;;;29.23;25.50;;;18.70;99.90;;;;;;5077820;28;20037;-58
2022/09/06 02:50:01;;;;;;;27.75;24.98;;;18.60;99.90;;;;;;5063350;28;20021;-53
2022/09/06 02:52:27;;;;;;;28.10;25.50;;;18.60;99.90;;;;;;5060147;28;20032;-53
2022/09/06 02:54:53;;;;;;;28.33;25.27;;;18.60;99.90;;;;;;5062551;28;20080;-56
2022/09/06 02:57:19;;;;;;;28.45;24.95;;;18.60;99.90;;;;;;5066085;28;20039;-56
2022/09/06 02:59:45;;;;;;;36.88;26.30;;;18.60;99.90;;;;;;5064591;28;20024;-56
2022/09/06 03:02:11;;;;;;;30.58;26.83;;;18.60;99.90;;;;;;5056355;28;20503;-56
2022/09/06 03:04:37;;;;;;;30.15;25.77;;;18.60;99.90;;;;;;5053670;28;20013;-56
2022/09/06 03:07:03;;;;;;;29.40;26.25;;;18.50;99.90;;;;;;5078829;28;20029;-56
2022/09/06 03:09:28;;;;;;;28.90;25.88;;;18.40;99.90;;;;;;5078546;28;20557;-54
2022/09/06 03:11:54;;;;;;;32.22;26.98;;;18.40;99.90;;;;;;5059366;28;20548;-54
2022/09/06 03:14:20;;;;;;;29.65;26.55;;;18.40;99.90;;;;;;5060121;28;20163;-54
2022/09/06 03:16:45;;;;;;;31.10;27.95;;;18.40;99.90;;;;;;5064602;28;20029;-56
2022/09/06 03:19:11;;;;;;;31.48;27.70;;;18.40;99.90;;;;;;5059240;28;20024;-57
2022/09/06 03:21:37;;;;;;;31.75;28.55;;;18.40;99.90;;;;;;5065083;28;20032;-51
2022/09/06 03:24:03;;;;;;;33.40;28.50;;;18.40;99.90;;;;;;5059268;28;20033;-54
2022/09/06 03:26:29;;;;;;;32.47;29.05;;;18.40;99.90;;;;;;5079021;28;20068;-58
2022/09/06 03:28:55;;;;;;;33.15;28.20;;;18.40;99.90;;;;;;5064001;28;20479;-56
2022/09/06 03:31:21;;;;;;;34.38;28.67;;;18.40;99.90;;;;;;5083571;28;20454;-53
2022/09/06 03:33:47;;;;;;;33.83;30.17;;;18.40;99.90;;;;;;5061729;28;20124;-58
2022/09/06 03:36:14;;;;;;;37.38;29.55;;;18.40;99.90;;;;;;5070666;28;20067;-54
2022/09/06 03:38:40;;;;;;;32.60;28.85;;;18.30;99.90;;;;;;5052277;28;20383;-55
2022/09/06 03:41:06;;;;;;;33.25;29.58;;;18.30;99.90;;;;;;5061346;28;20036;-53
2022/09/06 03:43:32;;;;;;;33.10;28.55;;;18.30;99.90;;;;;;5059339;28;20059;-56
2022/09/06 03:45:57;;;;;;;33.03;29.35;;;18.30;99.90;;;;;;5068704;28;20063;-56
2022/09/06 03:48:26;;;;;;;32.28;28.88;;;18.30;99.90;;;;;;5082196;28;20064;-56
2022/09/06 03:50:54;;;;;;;34.55;30.85;;;18.20;99.90;;;;;;5063774;28;20045;-54
2022/09/06 03:53:21;;;;;;;33.53;29.77;;;18.30;99.90;;;;;;5043640;28;20041;-58
2022/09/06 03:55:49;;;;;;;32.95;29.30;;;18.20;99.90;;;;;;5061002;28;20451;-54
2022/09/06 03:58:17;;;;;;;32.28;29.05;;;18.20;99.90;;;;;;5059182;28;20052;-52
2022/09/06 04:00:43;;;;;;;33.38;30.08;;;18.30;99.90;;;;;;5063340;28;20089;-53
2022/09/06 04:03:09;;;;;;;34.25;30.55;;;18.30;99.90;;;;;;5056990;28;20086;-54
2022/09/06 04:05:35;;;;;;;34.33;30.67;;;18.30;99.90;;;;;;5067738;28;20032;-55
2022/09/06 04:08:01;;;;;;;36.30;32.33;;;18.20;99.90;;;;;;5048230;28;20066;-56
2022/09/06 04:10:27;;;;;;;33.53;29.77;;;18.10;99.90;;;;;;5059241;28;20115;-56
2022/09/06 04:12:53;;;;;;;31.63;28.23;;;18.20;99.90;;;;;;5024861;28;20044;-51
2022/09/06 04:15:19;;;;;;;32.75;29.33;;;18.20;99.90;;;;;;5061324;28;20037;-57
2022/09/06 04:17:45;;;;;;;33.15;29.77;;;18.20;99.90;;;;;;5044122;28;20040;-55
2022/09/06 04:20:15;;;;;;;32.45;28.95;;;18.10;99.90;;;;;;5056299;28;20086;-55
2022/09/06 04:22:41;;;;;;;31.65;28.23;;;18.00;99.90;;;;;;5046339;28;20182;-53
2022/09/06 04:25:07;;;;;;;29.33;26.40;;;17.90;99.90;;;;;;5069440;28;20172;-54
2022/09/06 04:27:33;;;;;;;28.55;24.05;;;17.80;99.90;;;;;;5062564;28;20799;-54
2022/09/06 04:29:59;;;;;;;29.67;25.40;;;17.40;99.90;;;;;;5078974;28;20099;-56
2022/09/06 04:32:26;;;;;;;33.53;27.98;;;17.20;99.90;;;;;;5057063;28;20032;-55
2022/09/06 04:34:53;;;;;;;31.38;27.98;;;16.80;99.90;;;;;;5063270;28;20479;-56
2022/09/06 04:37:19;;;;;;;31.42;27.70;;;16.90;99.90;;;;;;5068315;28;20032;-57
2022/09/06 04:39:45;;;;;;;29.33;26.27;;;16.60;99.90;;;;;;5072895;28;20127;-57
2022/09/06 04:42:11;;;;;;;28.85;25.75;;;16.60;99.90;;;;;;5075539;28;20041;-53
2022/09/06 04:44:37;;;;;;;28.83;25.52;;;16.50;99.90;;;;;;5060606;28;20020;-52
2022/09/06 04:47:13;;;;;;;33.33;26.20;;;16.50;99.90;;;;;;5062250;28;20025;-58
2022/09/06 04:49:39;;;;;;;25.60;22.98;;;16.60;99.90;;;;;;5057148;28;20028;-54
2022/09/06 04:52:05;;;;;;;28.40;25.17;;;16.50;99.90;;;;;;5057701;28;20055;-55
2022/09/06 04:54:32;;;;;;;28.15;24.98;;;16.50;99.90;;;;;;5064374;28;20064;-55
2022/09/06 04:56:58;;;;;;;26.67;23.92;;;16.60;99.90;;;;;;5059538;28;20078;-57
2022/09/06 04:59:23;;;;;;;27.40;24.48;;;16.90;99.90;;;;;;5061896;28;20029;-56
2022/09/06 05:01:49;;;;;;;28.05;25.00;;;17.00;99.90;;;;;;5070322;28;20028;-53
2022/09/06 05:04:15;;;;;;;28.77;25.17;;;17.00;99.90;;;;;;5076671;28;20095;-53
2022/09/06 05:06:41;;;;;;;28.95;25.85;;;16.70;99.90;;;;;;5063411;28;20354;-54
2022/09/06 05:09:08;;;;;;;29.63;26.58;;;16.60;99.90;;;;;;5059310;28;20047;-56
2022/09/06 05:11:34;;;;;;;30.48;27.25;;;16.70;99.90;;;;;;5069258;28;20028;-56
2022/09/06 05:14:00;;;;;;;30.63;27.33;;;16.80;99.90;;;;;;5058642;28;20037;-55
2022/09/06 05:16:25;;;;;;;34.22;28.98;;;17.10;99.90;;;;;;5077662;28;20069;-53
2022/09/06 05:18:51;;;;;;;31.75;28.30;;;17.50;99.90;;;;;;5056185;28;20037;-54
2022/09/06 05:21:17;;;;;;;30.67;27.38;;;17.70;99.90;;;;;;5059894;28;20387;-56
2022/09/06 05:23:43;;;;;;;29.10;26.13;;;18.00;99.90;;;;;;5079825;28;20041;-53
2022/09/06 05:26:09;;;;;;;30.20;26.85;;;18.20;99.90;;;;;;5058507;28;20044;-51
2022/09/06 05:28:35;;;;;;;29.95;26.85;;;18.30;99.90;;;;;;5060636;28;20071;-54
2022/09/06 05:31:09;;;;;;;30.75;27.50;;;18.50;99.90;;;;;;5078090;28;20044;-55
2022/09/06 05:33:35;;;;;;;30.77;26.30;;;18.60;99.90;;;;;;5057770;28;20033;-54
2022/09/06 05:36:03;;;;;;;30.55;27.13;;;18.80;99.90;;;;;;5031653;28;20435;-57
2022/09/06 05:38:29;;;;;;;30.10;26.90;;;18.90;99.90;;;;;;5066627;28;20547;-54
2022/09/06 05:40:55;;;;;;;32.95;27.67;;;19.10;99.90;;;;;;5058439;28;20396;-51
2022/09/06 05:43:21;;;;;;;49.10;37.28;;;19.30;99.90;;;;;;5059895;28;20049;-53
2022/09/06 05:45:47;;;;;;;31.15;27.95;;;19.50;99.90;;;;;;5077209;28;20037;-57
2022/09/06 05:48:13;;;;;;;32.55;26.95;;;19.60;99.90;;;;;;5062406;28;20025;-51
2022/09/06 05:50:38;;;;;;;31.45;27.65;;;19.70;99.90;;;;;;5058184;28;20082;-53
2022/09/06 05:53:04;;;;;;;33.53;29.33;;;19.80;99.90;;;;;;5063557;28;20494;-55
2022/09/06 05:55:30;;;;;;;33.25;29.80;;;20.00;99.90;;;;;;5063856;28;20029;-55
2022/09/06 05:57:55;;;;;;;36.33;32.42;;;20.10;99.90;;;;;;5063618;28;20025;-51
2022/09/06 06:00:21;;;;;;;35.95;32.25;;;19.90;99.90;;;;;;5058559;28;20034;-55
2022/09/06 06:02:48;;;;;;;34.13;30.63;;;20.10;99.90;;;;;;5070197;28;20376;-55
2022/09/06 06:05:14;;;;;;;35.17;31.35;;;20.20;99.90;;;;;;5081221;28;20028;-53
2022/09/06 06:07:40;;;;;;;35.25;31.55;;;20.30;99.90;;;;;;5071804;28;20044;-55
2022/09/06 06:10:10;;;;;;;38.60;32.67;;;20.40;99.90;;;;;;5064860;28;20028;-58
2022/09/06 06:12:36;;;;;;;35.70;32.22;;;20.50;99.90;;;;;;5070872;28;20071;-54
2022/09/06 06:15:04;;;;;;;38.88;32.10;;;20.50;99.90;;;;;;5080469;28;20048;-54
2022/09/06 06:17:30;;;;;;;35.55;32.05;;;20.60;99.90;;;;;;5057533;28;20537;-57
2022/09/06 06:19:57;;;;;;;35.17;31.42;;;20.70;99.90;;;;;;5063611;28;20028;-52
2022/09/06 06:22:23;;;;;;;38.42;34.25;;;20.90;99.90;;;;;;5068601;28;20033;-52
2022/09/06 06:24:48;;;;;;;39.38;34.10;;;21.00;99.90;;;;;;5060981;28;20031;-54
2022/09/06 06:27:14;;;;;;;37.63;33.75;;;21.10;99.90;;;;;;5067071;28;20437;-53
2022/09/06 06:29:40;;;;;;;36.40;32.63;;;21.30;99.90;;;;;;5063139;28;20055;-52
2022/09/06 06:32:05;;;;;;;39.42;35.55;;;21.60;99.90;;;;;;5087003;28;20033;-51
2022/09/06 06:34:31;;;;;;;41.00;36.97;;;21.70;99.90;;;;;;5066410;28;20120;-57
2022/09/06 06:36:57;;;;;;;40.83;36.72;;;21.70;99.90;;;;;;5071715;28;20452;-54
2022/09/06 06:39:23;;;;;;;42.97;38.50;;;21.90;99.90;;;;;;5067382;28;20021;-51
2022/09/06 06:41:49;;;;;;;46.72;41.92;;;22.20;99.90;;;;;;5028934;28;20044;-52
2022/09/06 06:44:15;;;;;;;49.85;44.45;;;22.30;99.90;;;;;;5062470;28;20048;-53
2022/09/06 06:46:41;;;;;;;48.53;43.67;;;22.10;99.90;;;;;;5065762;28;20087;-57
2022/09/06 06:49:07;;;;;;;47.38;42.25;;;22.20;99.90;;;;;;5061101;28;20114;-52
2022/09/06 06:51:36;;;;;;;45.88;41.17;;;22.30;99.90;;;;;;5060638;28;20439;-51
2022/09/06 06:54:03;;;;;;;45.13;40.78;;;22.50;99.90;;;;;;5063654;28;20530;-56
2022/09/06 06:56:32;;;;;;;44.75;38.30;;;22.40;99.90;;;;;;5064336;28;20409;-55
2022/09/06 06:59:00;;;;;;;41.03;36.75;;;22.40;99.90;;;;;;5046288;28;20045;-54
2022/09/06 07:01:28;;;;;;;38.03;34.33;;;22.40;99.90;;;;;;5071645;28;20047;-54
2022/09/06 07:03:54;;;;;;;38.47;34.58;;;22.40;99.90;;;;;;5068895;28;20078;-54
2022/09/06 07:06:20;;;;;;;37.05;33.42;;;22.70;99.90;;;;;;5047656;28;20036;-55
2022/09/06 07:08:46;;;;;;;37.53;33.92;;;22.90;99.90;;;;;;5059675;28;20025;-55
2022/09/06 07:11:15;;;;;;;34.88;31.45;;;22.80;99.90;;;;;;5045691;28;20086;-52
2022/09/06 07:13:40;;;;;;;34.72;31.33;;;23.10;99.90;;;;;;5079374;28;20492;-53
2022/09/06 07:16:18;;;;;;;38.30;34.42;;;23.10;99.90;;;;;;5061442;28;20075;-52
2022/09/06 07:18:44;;;;;;;37.10;32.20;;;23.00;99.90;;;;;;5080477;28;20037;-54
2022/09/06 07:21:15;;;;;;;34.47;30.88;;;23.40;99.90;;;;;;5063577;28;20032;-54
2022/09/06 07:23:42;;;;;;;35.83;32.15;;;23.80;99.90;;;;;;5047178;28;20373;-53
2022/09/06 07:26:14;;;;;;;37.42;33.60;;;24.00;99.90;;;;;;5045491;28;20114;-54
2022/09/06 07:28:39;;;;;;;;;;;24.10;99.90;;;;;;5066608;28;20561;-54
2022/09/06 07:31:05;;;;;;;35.42;31.83;;;24.20;99.90;;;;;;5062018;28;19947;-52
2022/09/06 07:33:34;;;;;;;33.05;29.65;;;24.50;99.90;;;;;;5057334;28;20075;-55
2022/09/06 07:36:01;;;;;;;30.02;27.15;;;24.70;99.90;;;;;;5071772;28;20123;-56
2022/09/06 07:38:28;;;;;;;30.42;27.35;;;;;;;;;;5065002;28;20492;-53
